• Join FlightAware (Why Join?)
  • Login
  • US Flag 
12:32AM EDT


 

Airport Tracker/Info


-or-


 

Live Flight TrackerFlight Track Log ✈ UCA3598 ✈ 17-Sep-2013 ✈ KIAD - KBGM

Flight Track Log - Related Links

Times and Time Zones

All times are in EDT time to prevent confusion due to time zone crossing. See the UCA3598 flight status page for this flight to view local times or setup timezone preferences in your user account.

Time Position Orientation Groundspeed Altitude Reporting Facility
EDT Latitude Longitude Course Direction KTS MPH feet Rate Location/Type
10:11PM 38.9500 -77.5500 North 185 213 2,300  Level Potomac TRACON
10:12PM 38.9667 -77.6167 288° West 191 220 4,100 1,320 Climbing Potomac TRACON
10:13PM 38.9833 -77.6833 288° West 207 238 5,000 420 Climbing Potomac TRACON
10:14PM 39.0000 -77.7667 284° West 234 269 5,000  Level Potomac TRACON
10:15PM 39.3433 -77.2882 North  Level Estimated
10:15PM 39.0500 -77.7667 360° North 250 288 5,000  Level Potomac TRACON
10:16PM 39.4038 -77.2618 North  Level Estimated
10:16PM 39.1072 -77.7208 32° Northeast 258 297 5,600  Level Washington Center
10:17PM 39.1333 -77.6600 61° Northeast 235 270 6,000 780 Climbing Washington Center
10:18PM 39.1944 -77.6164 29° Northeast 231 266 7,200 1,440 Climbing Washington Center
10:19PM 39.2506 -77.6178 359° North 206 237 8,900 1,560 Climbing Washington Center
10:20PM 39.3069 -77.6139 North 206 237 10,300 1,380 Climbing Washington Center
10:21PM 39.3633 -77.6047 North 206 237 11,700 1,440 Climbing Washington Center
10:22PM 39.4333 -77.6000 North 201 231 13,400 1,140 Climbing Potomac TRACON
10:23PM 39.4719 -77.5917 North 207 238 14,100 840 Climbing Washington Center
10:24PM 39.5306 -77.5825 North 214 246 15,000 240 Climbing Washington Center
10:26PM 39.6614 -77.4539 37° Northeast 256 295 15,000 300 Level New York Center
10:27PM 39.7408 -77.4533 360° North 251 289 16,000 480 Climbing New York Center
10:28PM 39.8056 -77.4514 North 251 289 16,000 240 Level New York Center
10:29PM 39.8869 -77.4483 North 251 289 16,500 900 Climbing New York Center
10:30PM 39.9453 -77.4486 360° North 245 282 17,800 900 Climbing New York Center
10:31PM 40.0161 -77.4497 359° North 231 266 18,400 600 Climbing New York Center
10:32PM 40.0678 -77.4194 24° Northeast 220 253 19,000 300 Climbing New York Center
10:33PM 40.1372 -77.3744 26° Northeast 242 278 19,000  Level New York Center
10:34PM 40.2000 -77.3342 26° Northeast 265 305 19,000  Level New York Center
10:35PM 40.2756 -77.2842 27° Northeast 271 312 19,000  Level New York Center
10:36PM 40.3361 -77.2436 27° Northeast 271 312 19,000  Level New York Center
10:37PM 40.4119 -77.1936 27° Northeast 271 312 19,000  Level New York Center
10:38PM 40.4744 -77.1531 26° Northeast 271 312 19,000  Level New York Center
10:39PM 40.5503 -77.1025 27° Northeast 271 312 19,000  Level New York Center
10:40PM 40.6128 -77.0644 25° Northeast 271 312 19,000  Level New York Center
10:41PM 40.6883 -77.0139 27° Northeast 271 312 19,000 -360 Level New York Center
10:42PM 40.7508 -76.9731 26° Northeast 271 312 18,300 -720 Descending New York Center
10:43PM 40.8286 -76.9197 27° Northeast 276 318 17,600 -840 Descending New York Center
10:44PM 40.8936 -76.8761 27° Northeast 276 318 16,700 -1,020 Descending New York Center
10:45PM 40.9733 -76.8256 26° Northeast 276 318 15,600 -900 Descending New York Center
10:46PM 41.0336 -76.7842 27° Northeast 276 318 15,000 -300 Descending New York Center
10:47PM 41.1028 -76.7381 27° Northeast 276 318 15,000  Level New York Center
10:48PM 41.1694 -76.6944 26° Northeast 271 312 15,000  Level New York Center
10:49PM 41.2342 -76.6475 29° Northeast 271 312 15,000  Level New York Center
10:50PM 41.3056 -76.5986 27° Northeast 271 312 15,000  Level New York Center
10:51PM 41.3700 -76.5569 26° Northeast 271 312 15,000  Level New York Center
10:52PM 41.4347 -76.5100 29° Northeast 266 306 15,000  Level New York Center
10:53PM 41.4928 -76.4736 25° Northeast 266 306 15,000 -300 Level New York Center
10:54PM 41.5597 -76.4264 28° Northeast 266 306 14,400 -1,020 Descending New York Center
10:55PM 41.6350 -76.3744 27° Northeast 272 313 13,000 -1,440 Descending New York Center
10:56PM 41.7058 -76.3278 26° Northeast 277 319 11,600 -1,440 Descending New York Center
10:57PM 41.7725 -76.2833 26° Northeast 272 313 10,200 -1,500 Descending New York Center
10:58PM 41.8308 -76.2408 28° Northeast 272 313 8,700 -1,620 Descending New York Center
10:59PM 41.9039 -76.1911 27° Northeast 267 307 7,000 -1,560 Descending New York Center
11:00PM 41.9642 -76.1458 29° Northeast 267 307 5,600 -1,320 Descending New York Center
11:01PM 42.0228 -76.0919 34° Northeast 257 296 4,400 -900 Descending New York Center
11:02PM 42.0728 -76.0428 36° Northeast 251 289 3,900 -540 Descending New York Center
11:03PM 42.1144 -75.9958 40° Northeast 226 260 3,400 -600 Descending New York Center
11:04PM 42.1472 -75.9592 40° Northeast 182 209 2,800 -600 Descending New York Center
11:05PM 42.1839 -75.9286 32° Northeast 147 169 2,200 3,060 Descending New York Center
11:06PM 42.2167 -75.8947 37° Northeast 147 169 9,000 3,360 Climbing New York Center
11:07PM 42.2492 -75.8636 35° Northeast 147 169 9,000  Level New York Center
11:08PM 42.2819 -75.8297 37° Northeast 147 169 9,000  Level New York Center
11:09PM 42.3081 -75.8036 36° Northeast 147 169 9,000  Level New York Center